OPGD Airport Information

Runway Information
Runway 06 Length 4960 ft width 75 ft
Elevation 96 ft Threshold 0 ft Heading 63
Runway 24 Length 4960 ft Width 75 ft
Elevation 96 ft Threshold 0 ft Heading 243
Airport Frequencies
Type TWR Name TWR Frequency 122.5 MHZ
Airport Navaids
Type NDB Name Gwadar Frequency 303 KHZ
Airport Weather Information & NOTAM
ADDS - METARS form results

(0228 UTC 07 July 2020)
Data provider http://aviationweather.gov/metar/data/
 
Forecast for: OPGD (GWADAR , PK)
Text: TAF OPGD 062200Z 0700/0724 18005G15KT 4000 HZ SCT020 BKN100
Forecast period: 0000 UTC 07 July 2020 to 0000 UTC 08 July 2020
Forecast type: FROM: standard forecast or significant change
Winds: from the S (180 degrees) at 6 MPH (5 knots; 2.6 m/s)
gusting to 17 MPH (15 knots; 7.7 m/s)
Visibility: 2.49 miles (4.01 km)
Ceiling: 10000 feet AGL
Clouds: scattered clouds at 2000 feet AGL
broken clouds at 10000 feet AGL
Weather: HZ  (haze)
Text: TEMPO 0700/0704 13005KT 2000 BR SCT030
Forecast period: 0000 to 0400 UTC 07 July 2020
Forecast type: TEMPORARY: The following changes expected for less than half the time period
Winds: from the SE (130 degrees) at 6 MPH (5 knots; 2.6 m/s)
Visibility: 1.24 miles (2.00 km)
Ceiling: at least 12,000 feet AGL
Clouds: scattered clouds at 3000 feet AGL
Weather: BR  (mist)